﻿<?xml version="1.0" encoding="utf-8"?><gpx creator="Garmin Desktop App" version="1.1" xsi:schemaLocation="http://www.topografix.com/GPX/1/1 http://www.topografix.com/GPX/1/1/gpx.xsd http://www.garmin.com/xmlschemas/WaypointExtension/v1 http://www8.garmin.com/xmlschemas/WaypointExtensionv1.xsd http://www.garmin.com/xmlschemas/TrackPointExtension/v1 http://www.garmin.com/xmlschemas/TrackPointExtensionv1.xsd http://www.garmin.com/xmlschemas/GpxExtensions/v3 http://www8.garmin.com/xmlschemas/GpxExtensionsv3.xsd http://www.garmin.com/xmlschemas/ActivityExtension/v1 http://www8.garmin.com/xmlschemas/ActivityExtensionv1.xsd http://www.garmin.com/xmlschemas/AdventuresExtensions/v1 http://www8.garmin.com/xmlschemas/AdventuresExtensionv1.xsd http://www.garmin.com/xmlschemas/PressureExtension/v1 http://www.garmin.com/xmlschemas/PressureExtensionv1.xsd http://www.garmin.com/xmlschemas/TripExtensions/v1 http://www.garmin.com/xmlschemas/TripExtensionsv1.xsd http://www.garmin.com/xmlschemas/TripMetaDataExtensions/v1 http://www.garmin.com/xmlschemas/TripMetaDataExtensionsv1.xsd http://www.garmin.com/xmlschemas/ViaPointTransportationModeExtensions/v1 http://www.garmin.com/xmlschemas/ViaPointTransportationModeExtensionsv1.xsd http://www.garmin.com/xmlschemas/CreationTimeExtension/v1 http://www.garmin.com/xmlschemas/CreationTimeExtensionsv1.xsd http://www.garmin.com/xmlschemas/AccelerationExtension/v1 http://www.garmin.com/xmlschemas/AccelerationExtensionv1.xsd http://www.garmin.com/xmlschemas/PowerExtension/v1 http://www.garmin.com/xmlschemas/PowerExtensionv1.xsd http://www.garmin.com/xmlschemas/VideoExtension/v1 http://www.garmin.com/xmlschemas/VideoExtensionv1.xsd" xmlns="http://www.topografix.com/GPX/1/1" xmlns:xsi="http://www.w3.org/2001/XMLSchema-instance" xmlns:wptx1="http://www.garmin.com/xmlschemas/WaypointExtension/v1" xmlns:gpxtrx="http://www.garmin.com/xmlschemas/GpxExtensions/v3" xmlns:gpxtpx="http://www.garmin.com/xmlschemas/TrackPointExtension/v1" xmlns:gpxx="http://www.garmin.com/xmlschemas/GpxExtensions/v3" xmlns:trp="http://www.garmin.com/xmlschemas/TripExtensions/v1" xmlns:adv="http://www.garmin.com/xmlschemas/AdventuresExtensions/v1" xmlns:prs="http://www.garmin.com/xmlschemas/PressureExtension/v1" xmlns:tmd="http://www.garmin.com/xmlschemas/TripMetaDataExtensions/v1" xmlns:vptm="http://www.garmin.com/xmlschemas/ViaPointTransportationModeExtensions/v1" xmlns:ctx="http://www.garmin.com/xmlschemas/CreationTimeExtension/v1" xmlns:gpxacc="http://www.garmin.com/xmlschemas/AccelerationExtension/v1" xmlns:gpxpx="http://www.garmin.com/xmlschemas/PowerExtension/v1" xmlns:vidx1="http://www.garmin.com/xmlschemas/VideoExtension/v1">

  <metadata>
    <link href="http://www.garmin.com">
      <text>Garmin International</text>
    </link>
    <time>2015-09-06T19:17:45Z</time>
    <bounds maxlat="48.181117996573448" maxlon="11.321452036499977" minlat="48.132183020934463" minlon="11.221673022955656" />
  </metadata>

  <trk>
    <name>Emmering - FFB - Schöngaising Trailrunde 2</name>
    <extensions>
      <gpxx:TrackExtension>
        <gpxx:DisplayColor>DarkGray</gpxx:DisplayColor>
      </gpxx:TrackExtension>
    </extensions>
    <trkseg>
      <trkpt lat="48.132183020934463" lon="11.221781987696886">
        <ele>613</ele>
        <time>2015-09-06T12:48:28Z</time>
      </trkpt>
      <trkpt lat="48.133175019174814" lon="11.222539041191339">
        <ele>609</ele>
        <time>2015-09-06T12:49:01Z</time>
      </trkpt>
      <trkpt lat="48.133555976673961" lon="11.222486989572644">
        <ele>608</ele>
        <time>2015-09-06T12:49:13Z</time>
      </trkpt>
      <trkpt lat="48.134891968220472" lon="11.223292993381619">
        <ele>610</ele>
        <time>2015-09-06T12:49:56Z</time>
      </trkpt>
      <trkpt lat="48.135009985417128" lon="11.223290981724858">
        <ele>610</ele>
        <time>2015-09-06T12:50:00Z</time>
      </trkpt>
      <trkpt lat="48.135436959564686" lon="11.223067017272115">
        <ele>607</ele>
        <time>2015-09-06T12:50:13Z</time>
      </trkpt>
      <trkpt lat="48.135714987292886" lon="11.223151003941894">
        <ele>604</ele>
        <time>2015-09-06T12:50:22Z</time>
      </trkpt>
      <trkpt lat="48.135868040844798" lon="11.223258040845394">
        <ele>602</ele>
        <time>2015-09-06T12:50:27Z</time>
      </trkpt>
      <trkpt lat="48.136036014184356" lon="11.223184028640389">
        <ele>600</ele>
        <time>2015-09-06T12:50:32Z</time>
      </trkpt>
      <trkpt lat="48.136135004460812" lon="11.223145974799991">
        <ele>599</ele>
        <time>2015-09-06T12:50:35Z</time>
      </trkpt>
      <trkpt lat="48.137335879728198" lon="11.223185705021024">
        <ele>595</ele>
        <time>2015-09-06T12:51:11Z</time>
      </trkpt>
      <trkpt lat="48.137938203290105" lon="11.224228413775563">
        <ele>594</ele>
        <time>2015-09-06T12:51:29Z</time>
      </trkpt>
      <trkpt lat="48.13791305758059" lon="11.223260723054409">
        <ele>588</ele>
        <time>2015-09-06T12:51:43Z</time>
      </trkpt>
      <trkpt lat="48.137947004288435" lon="11.222598971799016">
        <ele>584</ele>
        <time>2015-09-06T12:51:51Z</time>
      </trkpt>
      <trkpt lat="48.137900484725833" lon="11.222477350383997">
        <ele>580</ele>
        <time>2015-09-06T12:51:57Z</time>
      </trkpt>
      <trkpt lat="48.137843906879425" lon="11.222071833908558">
        <ele>574</ele>
        <time>2015-09-06T12:52:06Z</time>
      </trkpt>
      <trkpt lat="48.137924037873745" lon="11.221699006855488">
        <ele>573</ele>
        <time>2015-09-06T12:52:09Z</time>
      </trkpt>
      <trkpt lat="48.138015987351537" lon="11.221673022955656">
        <ele>572</ele>
        <time>2015-09-06T12:52:12Z</time>
      </trkpt>
      <trkpt lat="48.138523008674383" lon="11.221902016550303">
        <ele>574</ele>
        <time>2015-09-06T12:52:28Z</time>
      </trkpt>
      <trkpt lat="48.139198003336787" lon="11.222622022032738">
        <ele>577</ele>
        <time>2015-09-06T12:52:53Z</time>
      </trkpt>
      <trkpt lat="48.13965599052608" lon="11.222882028669119">
        <ele>576</ele>
        <time>2015-09-06T12:53:07Z</time>
      </trkpt>
      <trkpt lat="48.139995960518718" lon="11.223362982273102">
        <ele>575</ele>
        <time>2015-09-06T12:53:21Z</time>
      </trkpt>
      <trkpt lat="48.140086987987161" lon="11.223388966172934">
        <ele>575</ele>
        <time>2015-09-06T12:53:24Z</time>
      </trkpt>
      <trkpt lat="48.140354538336396" lon="11.2234943266958">
        <ele>572</ele>
        <time>2015-09-06T12:53:32Z</time>
      </trkpt>
      <trkpt lat="48.141241176053882" lon="11.222830731421709">
        <ele>566</ele>
        <time>2015-09-06T12:53:50Z</time>
      </trkpt>
      <trkpt lat="48.141719028353691" lon="11.223005913197994">
        <ele>565</ele>
        <time>2015-09-06T12:53:55Z</time>
      </trkpt>
      <trkpt lat="48.142687976360321" lon="11.223982824012637">
        <ele>571</ele>
        <time>2015-09-06T12:54:25Z</time>
      </trkpt>
      <trkpt lat="48.143140682950616" lon="11.225043637678027">
        <ele>572</ele>
        <time>2015-09-06T12:54:28Z</time>
      </trkpt>
      <trkpt lat="48.143907878547907" lon="11.225771689787507">
        <ele>581</ele>
        <time>2015-09-06T12:55:01Z</time>
      </trkpt>
      <trkpt lat="48.144121700897813" lon="11.227006679400802">
        <ele>580</ele>
        <time>2015-09-06T12:55:10Z</time>
      </trkpt>
      <trkpt lat="48.144580693915486" lon="11.227200217545033">
        <ele>582</ele>
        <time>2015-09-06T12:55:45Z</time>
      </trkpt>
      <trkpt lat="48.144480111077428" lon="11.227670274674892">
        <ele>583</ele>
        <time>2015-09-06T12:55:48Z</time>
      </trkpt>
      <trkpt lat="48.144668787717819" lon="11.227937573567033">
        <ele>591</ele>
        <time>2015-09-06T12:56:01Z</time>
      </trkpt>
      <trkpt lat="48.144744224846363" lon="11.22842607088387">
        <ele>600</ele>
        <time>2015-09-06T12:56:14Z</time>
      </trkpt>
      <trkpt lat="48.145379237830639" lon="11.229421840980649">
        <ele>597</ele>
        <time>2015-09-06T12:57:26Z</time>
      </trkpt>
      <trkpt lat="48.14577897079289" lon="11.229972029104829">
        <ele>597</ele>
        <time>2015-09-06T12:57:37Z</time>
      </trkpt>
      <trkpt lat="48.146004024893045" lon="11.230487013235688">
        <ele>595</ele>
        <time>2015-09-06T12:57:49Z</time>
      </trkpt>
      <trkpt lat="48.14607996493578" lon="11.230569994077086">
        <ele>594</ele>
        <time>2015-09-06T12:57:52Z</time>
      </trkpt>
      <trkpt lat="48.146197982132435" lon="11.2305330298841">
        <ele>594</ele>
        <time>2015-09-06T12:57:56Z</time>
      </trkpt>
      <trkpt lat="48.146622022613883" lon="11.230491958558559">
        <ele>594</ele>
        <time>2015-09-06T12:58:09Z</time>
      </trkpt>
      <trkpt lat="48.146944977343082" lon="11.230656830593944">
        <ele>595</ele>
        <time>2015-09-06T12:58:15Z</time>
      </trkpt>
      <trkpt lat="48.147785011678934" lon="11.230530012398958">
        <ele>604</ele>
        <time>2015-09-06T12:58:44Z</time>
      </trkpt>
      <trkpt lat="48.149055037647486" lon="11.231035022065043">
        <ele>600</ele>
        <time>2015-09-06T12:59:24Z</time>
      </trkpt>
      <trkpt lat="48.149540014564991" lon="11.231686966493726">
        <ele>596</ele>
        <time>2015-09-06T12:59:43Z</time>
      </trkpt>
      <trkpt lat="48.149634981527925" lon="11.231893999502063">
        <ele>596</ele>
        <time>2015-09-06T12:59:48Z</time>
      </trkpt>
      <trkpt lat="48.15005499869585" lon="11.232366990298033">
        <ele>598</ele>
        <time>2015-09-06T13:00:04Z</time>
      </trkpt>
      <trkpt lat="48.150538969784975" lon="11.232615010812879">
        <ele>602</ele>
        <time>2015-09-06T13:00:20Z</time>
      </trkpt>
      <trkpt lat="48.150626979768276" lon="11.23272699303925">
        <ele>603</ele>
        <time>2015-09-06T13:00:23Z</time>
      </trkpt>
      <trkpt lat="48.150734016671777" lon="11.23289898969233">
        <ele>603</ele>
        <time>2015-09-06T13:00:28Z</time>
      </trkpt>
      <trkpt lat="48.151340028271079" lon="11.233602985739708">
        <ele>606</ele>
        <time>2015-09-06T13:00:51Z</time>
      </trkpt>
      <trkpt lat="48.151413034647703" lon="11.233909009024501">
        <ele>608</ele>
        <time>2015-09-06T13:00:57Z</time>
      </trkpt>
      <trkpt lat="48.151138024404645" lon="11.234880974516273">
        <ele>603</ele>
        <time>2015-09-06T13:01:18Z</time>
      </trkpt>
      <trkpt lat="48.151108017191291" lon="11.235232008621097">
        <ele>600</ele>
        <time>2015-09-06T13:01:26Z</time>
      </trkpt>
      <trkpt lat="48.151123020797968" lon="11.23540903441608">
        <ele>599</ele>
        <time>2015-09-06T13:01:29Z</time>
      </trkpt>
      <trkpt lat="48.151088990271091" lon="11.235588993877172">
        <ele>597</ele>
        <time>2015-09-06T13:01:33Z</time>
      </trkpt>
      <trkpt lat="48.150761006399989" lon="11.23567096889019">
        <ele>594</ele>
        <time>2015-09-06T13:01:43Z</time>
      </trkpt>
      <trkpt lat="48.150620022788644" lon="11.235789991915226">
        <ele>593</ele>
        <time>2015-09-06T13:01:48Z</time>
      </trkpt>
      <trkpt lat="48.150565959513187" lon="11.235901974141598">
        <ele>593</ele>
        <time>2015-09-06T13:01:51Z</time>
      </trkpt>
      <trkpt lat="48.150532012805343" lon="11.236322997137904">
        <ele>592</ele>
        <time>2015-09-06T13:01:59Z</time>
      </trkpt>
      <trkpt lat="48.15056998282671" lon="11.237053982913494">
        <ele>594</ele>
        <time>2015-09-06T13:02:14Z</time>
      </trkpt>
      <trkpt lat="48.150466969236732" lon="11.237404011189938">
        <ele>595</ele>
        <time>2015-09-06T13:02:21Z</time>
      </trkpt>
      <trkpt lat="48.150200005620718" lon="11.239248029887676">
        <ele>592</ele>
        <time>2015-09-06T13:02:59Z</time>
      </trkpt>
      <trkpt lat="48.149798261001706" lon="11.239979602396488">
        <ele>594</ele>
        <time>2015-09-06T13:03:16Z</time>
      </trkpt>
      <trkpt lat="48.149897083640099" lon="11.240545799955726">
        <ele>594</ele>
        <time>2015-09-06T13:03:23Z</time>
      </trkpt>
      <trkpt lat="48.150350796058774" lon="11.241166396066546">
        <ele>593</ele>
        <time>2015-09-06T13:03:27Z</time>
      </trkpt>
      <trkpt lat="48.150503514334559" lon="11.241706190630794">
        <ele>591</ele>
        <time>2015-09-06T13:03:52Z</time>
      </trkpt>
      <trkpt lat="48.150373259559274" lon="11.243029441684484">
        <ele>590</ele>
        <time>2015-09-06T13:04:08Z</time>
      </trkpt>
      <trkpt lat="48.151073902845383" lon="11.242937240749598">
        <ele>590</ele>
        <time>2015-09-06T13:04:31Z</time>
      </trkpt>
      <trkpt lat="48.152241753414273" lon="11.242120927199721">
        <ele>589</ele>
        <time>2015-09-06T13:05:25Z</time>
      </trkpt>
      <trkpt lat="48.153588892892003" lon="11.242539100348949">
        <ele>588</ele>
        <time>2015-09-06T13:06:09Z</time>
      </trkpt>
      <trkpt lat="48.155581103637815" lon="11.243492038920522">
        <ele>596</ele>
        <time>2015-09-06T13:07:09Z</time>
      </trkpt>
      <trkpt lat="48.154255002737045" lon="11.245120977982879">
        <ele>594</ele>
        <time>2015-09-06T13:07:53Z</time>
      </trkpt>
      <trkpt lat="48.154233628883958" lon="11.245453823357821">
        <ele>594</ele>
        <time>2015-09-06T13:08:05Z</time>
      </trkpt>
      <trkpt lat="48.154238071292639" lon="11.24584224075079">
        <ele>594</ele>
        <time>2015-09-06T13:08:09Z</time>
      </trkpt>
      <trkpt lat="48.154349969699979" lon="11.246545985341072">
        <ele>595</ele>
        <time>2015-09-06T13:08:26Z</time>
      </trkpt>
      <trkpt lat="48.154458180069923" lon="11.246770452708006">
        <ele>595</ele>
        <time>2015-09-06T13:08:32Z</time>
      </trkpt>
      <trkpt lat="48.154624979943037" lon="11.24720698222518">
        <ele>597</ele>
        <time>2015-09-06T13:08:42Z</time>
      </trkpt>
      <trkpt lat="48.154121311381459" lon="11.247915923595428">
        <ele>599</ele>
        <time>2015-09-06T13:09:05Z</time>
      </trkpt>
      <trkpt lat="48.153782011941075" lon="11.248200992122293">
        <ele>594</ele>
        <time>2015-09-06T13:09:18Z</time>
      </trkpt>
      <trkpt lat="48.153614038601518" lon="11.248316997662187">
        <ele>592</ele>
        <time>2015-09-06T13:09:24Z</time>
      </trkpt>
      <trkpt lat="48.153456542640924" lon="11.248561078682542">
        <ele>592</ele>
        <time>2015-09-06T13:09:28Z</time>
      </trkpt>
      <trkpt lat="48.153438605368137" lon="11.24956171028316">
        <ele>592</ele>
        <time>2015-09-06T13:09:49Z</time>
      </trkpt>
      <trkpt lat="48.153627198189497" lon="11.250187084078789">
        <ele>591</ele>
        <time>2015-09-06T13:10:02Z</time>
      </trkpt>
      <trkpt lat="48.153709005564451" lon="11.250479025766253">
        <ele>590</ele>
        <time>2015-09-06T13:10:08Z</time>
      </trkpt>
      <trkpt lat="48.154277969151735" lon="11.251157037913799">
        <ele>592</ele>
        <time>2015-09-06T13:10:30Z</time>
      </trkpt>
      <trkpt lat="48.154555996879935" lon="11.251313025131822">
        <ele>593</ele>
        <time>2015-09-06T13:10:39Z</time>
      </trkpt>
      <trkpt lat="48.155086990445852" lon="11.251615695655346">
        <ele>593</ele>
        <time>2015-09-06T13:10:43Z</time>
      </trkpt>
      <trkpt lat="48.15553299151361" lon="11.25216999091208">
        <ele>591</ele>
        <time>2015-09-06T13:11:13Z</time>
      </trkpt>
      <trkpt lat="48.155688978731632" lon="11.25236202031374">
        <ele>590</ele>
        <time>2015-09-06T13:11:19Z</time>
      </trkpt>
      <trkpt lat="48.156295996159315" lon="11.252773990854621">
        <ele>589</ele>
        <time>2015-09-06T13:11:39Z</time>
      </trkpt>
      <trkpt lat="48.156475033611059" lon="11.252954034134746">
        <ele>589</ele>
        <time>2015-09-06T13:11:45Z</time>
      </trkpt>
      <trkpt lat="48.156559020280838" lon="11.253014970570803">
        <ele>589</ele>
        <time>2015-09-06T13:11:48Z</time>
      </trkpt>
      <trkpt lat="48.156882980838418" lon="11.253376984968781">
        <ele>589</ele>
        <time>2015-09-06T13:12:00Z</time>
      </trkpt>
      <trkpt lat="48.156933020800352" lon="11.253533978015184">
        <ele>588</ele>
        <time>2015-09-06T13:12:04Z</time>
      </trkpt>
      <trkpt lat="48.15707802772522" lon="11.253732964396477">
        <ele>587</ele>
        <time>2015-09-06T13:12:10Z</time>
      </trkpt>
      <trkpt lat="48.157901968806982" lon="11.25442698597908">
        <ele>583</ele>
        <time>2015-09-06T13:12:38Z</time>
      </trkpt>
      <trkpt lat="48.158507980406284" lon="11.254668971523643">
        <ele>580</ele>
        <time>2015-09-06T13:12:57Z</time>
      </trkpt>
      <trkpt lat="48.158610993996263" lon="11.254744995385408">
        <ele>579</ele>
        <time>2015-09-06T13:13:00Z</time>
      </trkpt>
      <trkpt lat="48.15883026458323" lon="11.254812134429812">
        <ele>579</ele>
        <time>2015-09-06T13:13:08Z</time>
      </trkpt>
      <trkpt lat="48.158888686448336" lon="11.254917494952679">
        <ele>578</ele>
        <time>2015-09-06T13:13:12Z</time>
      </trkpt>
      <trkpt lat="48.159059341996908" lon="11.254858234897256">
        <ele>578</ele>
        <time>2015-09-06T13:13:16Z</time>
      </trkpt>
      <trkpt lat="48.159161014482379" lon="11.254827976226807">
        <ele>579</ele>
        <time>2015-09-06T13:13:19Z</time>
      </trkpt>
      <trkpt lat="48.159233015030622" lon="11.25502604059875">
        <ele>579</ele>
        <time>2015-09-06T13:13:23Z</time>
      </trkpt>
      <trkpt lat="48.159812958911061" lon="11.255362993106246">
        <ele>575</ele>
        <time>2015-09-06T13:13:42Z</time>
      </trkpt>
      <trkpt lat="48.159927036613226" lon="11.255612019449472">
        <ele>574</ele>
        <time>2015-09-06T13:13:48Z</time>
      </trkpt>
      <trkpt lat="48.159816982224584" lon="11.255937991663814">
        <ele>577</ele>
        <time>2015-09-06T13:13:55Z</time>
      </trkpt>
      <trkpt lat="48.159697959199548" lon="11.255999011918902">
        <ele>579</ele>
        <time>2015-09-06T13:13:59Z</time>
      </trkpt>
      <trkpt lat="48.159686978906393" lon="11.256143013015389">
        <ele>580</ele>
        <time>2015-09-06T13:14:02Z</time>
      </trkpt>
      <trkpt lat="48.159697959199548" lon="11.256309980526567">
        <ele>581</ele>
        <time>2015-09-06T13:14:05Z</time>
      </trkpt>
      <trkpt lat="48.159737018868327" lon="11.256432021036744">
        <ele>581</ele>
        <time>2015-09-06T13:14:08Z</time>
      </trkpt>
      <trkpt lat="48.159794015809894" lon="11.256804009899497">
        <ele>582</ele>
        <time>2015-09-06T13:14:16Z</time>
      </trkpt>
      <trkpt lat="48.15985101275146" lon="11.256921021267772">
        <ele>582</ele>
        <time>2015-09-06T13:14:18Z</time>
      </trkpt>
      <trkpt lat="48.160042036324739" lon="11.257071979343891">
        <ele>583</ele>
        <time>2015-09-06T13:14:25Z</time>
      </trkpt>
      <trkpt lat="48.160484014078975" lon="11.257065022364259">
        <ele>583</ele>
        <time>2015-09-06T13:14:38Z</time>
      </trkpt>
      <trkpt lat="48.160609994083643" lon="11.257017999887466">
        <ele>583</ele>
        <time>2015-09-06T13:14:42Z</time>
      </trkpt>
      <trkpt lat="48.160690041258931" lon="11.256938958540559">
        <ele>583</ele>
        <time>2015-09-06T13:14:45Z</time>
      </trkpt>
      <trkpt lat="48.160781990736723" lon="11.256909035146236">
        <ele>583</ele>
        <time>2015-09-06T13:14:48Z</time>
      </trkpt>
      <trkpt lat="48.161483975127339" lon="11.257001990452409">
        <ele>581</ele>
        <time>2015-09-06T13:15:09Z</time>
      </trkpt>
      <trkpt lat="48.162475973367691" lon="11.257469030097127">
        <ele>575</ele>
        <time>2015-09-06T13:15:40Z</time>
      </trkpt>
      <trkpt lat="48.162848968058825" lon="11.257921988144517">
        <ele>573</ele>
        <time>2015-09-06T13:15:55Z</time>
      </trkpt>
      <trkpt lat="48.163059018552303" lon="11.258265981450677">
        <ele>573</ele>
        <time>2015-09-06T13:16:04Z</time>
      </trkpt>
      <trkpt lat="48.163238978013396" lon="11.258199010044336">
        <ele>573</ele>
        <time>2015-09-06T13:16:10Z</time>
      </trkpt>
      <trkpt lat="48.16341801546514" lon="11.25812298618257">
        <ele>571</ele>
        <time>2015-09-06T13:16:15Z</time>
      </trkpt>
      <trkpt lat="48.163653966039419" lon="11.258195992559195">
        <ele>569</ele>
        <time>2015-09-06T13:16:22Z</time>
      </trkpt>
      <trkpt lat="48.163937022909522" lon="11.258434960618615">
        <ele>568</ele>
        <time>2015-09-06T13:16:32Z</time>
      </trkpt>
      <trkpt lat="48.164196023717523" lon="11.258914992213249">
        <ele>569</ele>
        <time>2015-09-06T13:16:45Z</time>
      </trkpt>
      <trkpt lat="48.164314040914178" lon="11.259460989385843">
        <ele>571</ele>
        <time>2015-09-06T13:16:56Z</time>
      </trkpt>
      <trkpt lat="48.164260983467102" lon="11.260013021528721">
        <ele>572</ele>
        <time>2015-09-06T13:17:07Z</time>
      </trkpt>
      <trkpt lat="48.164317980408669" lon="11.260223994031549">
        <ele>572</ele>
        <time>2015-09-06T13:17:12Z</time>
      </trkpt>
      <trkpt lat="48.165070004761219" lon="11.261873971670866">
        <ele>571</ele>
        <time>2015-09-06T13:17:52Z</time>
      </trkpt>
      <trkpt lat="48.165131025016308" lon="11.262891031801701">
        <ele>565</ele>
        <time>2015-09-06T13:18:12Z</time>
      </trkpt>
      <trkpt lat="48.165012001991272" lon="11.266420986503363">
        <ele>573</ele>
        <time>2015-09-06T13:19:23Z</time>
      </trkpt>
      <trkpt lat="48.165100011974573" lon="11.266582002863288">
        <ele>574</ele>
        <time>2015-09-06T13:19:27Z</time>
      </trkpt>
      <trkpt lat="48.165465965867043" lon="11.266755005344748">
        <ele>577</ele>
        <time>2015-09-06T13:19:39Z</time>
      </trkpt>
      <trkpt lat="48.166698021814227" lon="11.266867993399501">
        <ele>584</ele>
        <time>2015-09-06T13:20:16Z</time>
      </trkpt>
      <trkpt lat="48.167187022045255" lon="11.267020963132381">
        <ele>581</ele>
        <time>2015-09-06T13:20:31Z</time>
      </trkpt>
      <trkpt lat="48.167434958741069" lon="11.267051976174116">
        <ele>580</ele>
        <time>2015-09-06T13:20:39Z</time>
      </trkpt>
      <trkpt lat="48.169131958857179" lon="11.267808023840189">
        <ele>563</ele>
        <time>2015-09-06T13:21:32Z</time>
      </trkpt>
      <trkpt lat="48.16947603598237" lon="11.268443958833814">
        <ele>555</ele>
        <time>2015-09-06T13:21:48Z</time>
      </trkpt>
      <trkpt lat="48.169590029865503" lon="11.269135968759656">
        <ele>548</ele>
        <time>2015-09-06T13:22:02Z</time>
      </trkpt>
      <trkpt lat="48.169716009870172" lon="11.269264966249466">
        <ele>545</ele>
        <time>2015-09-06T13:22:07Z</time>
      </trkpt>
      <trkpt lat="48.170006023719907" lon="11.269064974039793">
        <ele>541</ele>
        <time>2015-09-06T13:22:17Z</time>
      </trkpt>
      <trkpt lat="48.169909967109561" lon="11.269099004566669">
        <ele>542</ele>
        <time>2015-09-06T13:22:20Z</time>
      </trkpt>
      <trkpt lat="48.170070983469486" lon="11.269067991524935">
        <ele>541</ele>
        <time>2015-09-06T13:22:24Z</time>
      </trkpt>
      <trkpt lat="48.170672971755266" lon="11.268999008461833">
        <ele>539</ele>
        <time>2015-09-06T13:22:43Z</time>
      </trkpt>
      <trkpt lat="48.171020988374949" lon="11.268388973549008">
        <ele>537</ele>
        <time>2015-09-06T13:22:59Z</time>
      </trkpt>
      <trkpt lat="48.171393983066082" lon="11.2668870203197">
        <ele>530</ele>
        <time>2015-09-06T13:23:31Z</time>
      </trkpt>
      <trkpt lat="48.17151602357626" lon="11.266689039766788">
        <ele>528</ele>
        <time>2015-09-06T13:23:36Z</time>
      </trkpt>
      <trkpt lat="48.171616019681096" lon="11.266703959554434">
        <ele>528</ele>
        <time>2015-09-06T13:23:39Z</time>
      </trkpt>
      <trkpt lat="48.171715009957552" lon="11.267181979492307">
        <ele>527</ele>
        <time>2015-09-06T13:23:49Z</time>
      </trkpt>
      <trkpt lat="48.172089010477066" lon="11.272077010944486">
        <ele>537</ele>
        <time>2015-09-06T13:25:28Z</time>
      </trkpt>
      <trkpt lat="48.172244997695088" lon="11.272942023351789">
        <ele>540</ele>
        <time>2015-09-06T13:25:46Z</time>
      </trkpt>
      <trkpt lat="48.172279028221965" lon="11.273293979465961">
        <ele>539</ele>
        <time>2015-09-06T13:25:53Z</time>
      </trkpt>
      <trkpt lat="48.1724620051682" lon="11.274273991584778">
        <ele>536</ele>
        <time>2015-09-06T13:26:14Z</time>
      </trkpt>
      <trkpt lat="48.172451024875045" lon="11.274496028199792">
        <ele>538</ele>
        <time>2015-09-06T13:26:18Z</time>
      </trkpt>
      <trkpt lat="48.172244997695088" lon="11.274971030652523">
        <ele>548</ele>
        <time>2015-09-06T13:26:29Z</time>
      </trkpt>
      <trkpt lat="48.172195041552186" lon="11.275446033105254">
        <ele>553</ele>
        <time>2015-09-06T13:26:39Z</time>
      </trkpt>
      <trkpt lat="48.172134021297097" lon="11.275571007281542">
        <ele>555</ele>
        <time>2015-09-06T13:26:42Z</time>
      </trkpt>
      <trkpt lat="48.172053974121809" lon="11.27601801417768">
        <ele>559</ele>
        <time>2015-09-06T13:26:51Z</time>
      </trkpt>
      <trkpt lat="48.172069983556867" lon="11.276252958923578">
        <ele>561</ele>
        <time>2015-09-06T13:26:56Z</time>
      </trkpt>
      <trkpt lat="48.172053974121809" lon="11.276411041617393">
        <ele>563</ele>
        <time>2015-09-06T13:26:59Z</time>
      </trkpt>
      <trkpt lat="48.172005023807287" lon="11.276567028835416">
        <ele>564</ele>
        <time>2015-09-06T13:27:03Z</time>
      </trkpt>
      <trkpt lat="48.171921037137508" lon="11.276711029931903">
        <ele>565</ele>
        <time>2015-09-06T13:27:07Z</time>
      </trkpt>
      <trkpt lat="48.171844007447362" lon="11.277139009907842">
        <ele>568</ele>
        <time>2015-09-06T13:27:15Z</time>
      </trkpt>
      <trkpt lat="48.171844007447362" lon="11.277275970205665">
        <ele>569</ele>
        <time>2015-09-06T13:27:18Z</time>
      </trkpt>
      <trkpt lat="48.171806037425995" lon="11.277429023757577">
        <ele>570</ele>
        <time>2015-09-06T13:27:21Z</time>
      </trkpt>
      <trkpt lat="48.171413009986281" lon="11.279394999146461">
        <ele>568</ele>
        <time>2015-09-06T13:28:03Z</time>
      </trkpt>
      <trkpt lat="48.171462966129184" lon="11.279547968879342">
        <ele>568</ele>
        <time>2015-09-06T13:28:06Z</time>
      </trkpt>
      <trkpt lat="48.172073001042008" lon="11.280146017670631">
        <ele>569</ele>
        <time>2015-09-06T13:28:28Z</time>
      </trkpt>
      <trkpt lat="48.172240974381566" lon="11.280265962705016">
        <ele>570</ele>
        <time>2015-09-06T13:28:34Z</time>
      </trkpt>
      <trkpt lat="48.1723100412637" lon="11.280368976294994">
        <ele>570</ele>
        <time>2015-09-06T13:28:36Z</time>
      </trkpt>
      <trkpt lat="48.173489039763808" lon="11.285388981923461">
        <ele>561</ele>
        <time>2015-09-06T13:30:23Z</time>
      </trkpt>
      <trkpt lat="48.173518963158131" lon="11.285822996869683">
        <ele>561</ele>
        <time>2015-09-06T13:30:32Z</time>
      </trkpt>
      <trkpt lat="48.173748040571809" lon="11.286411993205547">
        <ele>562</ele>
        <time>2015-09-06T13:30:46Z</time>
      </trkpt>
      <trkpt lat="48.174178870394826" lon="11.292727924883366">
        <ele>571</ele>
        <time>2015-09-06T13:32:41Z</time>
      </trkpt>
      <trkpt lat="48.174392692744732" lon="11.292377728968859">
        <ele>570</ele>
        <time>2015-09-06T13:32:59Z</time>
      </trkpt>
      <trkpt lat="48.175084367394447" lon="11.293050544336438">
        <ele>570</ele>
        <time>2015-09-06T13:33:02Z</time>
      </trkpt>
      <trkpt lat="48.17578861489892" lon="11.292727924883366">
        <ele>569</ele>
        <time>2015-09-06T13:33:05Z</time>
      </trkpt>
      <trkpt lat="48.175763469189405" lon="11.294220993295312">
        <ele>567</ele>
        <time>2015-09-06T13:33:10Z</time>
      </trkpt>
      <trkpt lat="48.175493068993092" lon="11.295151887461543">
        <ele>567</ele>
        <time>2015-09-06T13:35:38Z</time>
      </trkpt>
      <trkpt lat="48.175329621881247" lon="11.295649521052837">
        <ele>568</ele>
        <time>2015-09-06T13:35:41Z</time>
      </trkpt>
      <trkpt lat="48.175178663805127" lon="11.296792393550277">
        <ele>574</ele>
        <time>2015-09-06T13:36:09Z</time>
      </trkpt>
      <trkpt lat="48.175319982692599" lon="11.300494009628892">
        <ele>568</ele>
        <time>2015-09-06T13:37:26Z</time>
      </trkpt>
      <trkpt lat="48.175075985491276" lon="11.301510985940695">
        <ele>566</ele>
        <time>2015-09-06T13:37:48Z</time>
      </trkpt>
      <trkpt lat="48.175261979922652" lon="11.302282959222794">
        <ele>562</ele>
        <time>2015-09-06T13:38:04Z</time>
      </trkpt>
      <trkpt lat="48.175243036821485" lon="11.302636004984379">
        <ele>560</ele>
        <time>2015-09-06T13:38:11Z</time>
      </trkpt>
      <trkpt lat="48.175198026001453" lon="11.302801966667175">
        <ele>559</ele>
        <time>2015-09-06T13:38:15Z</time>
      </trkpt>
      <trkpt lat="48.17525502294302" lon="11.303288033232093">
        <ele>556</ele>
        <time>2015-09-06T13:38:25Z</time>
      </trkpt>
      <trkpt lat="48.175319982692599" lon="11.303548039868474">
        <ele>555</ele>
        <time>2015-09-06T13:38:30Z</time>
      </trkpt>
      <trkpt lat="48.175403969362378" lon="11.303649041801691">
        <ele>555</ele>
        <time>2015-09-06T13:38:34Z</time>
      </trkpt>
      <trkpt lat="48.176154987886548" lon="11.304208030924201">
        <ele>550</ele>
        <time>2015-09-06T13:38:59Z</time>
      </trkpt>
      <trkpt lat="48.176413988694549" lon="11.304481029510498">
        <ele>548</ele>
        <time>2015-09-06T13:39:08Z</time>
      </trkpt>
      <trkpt lat="48.176594031974673" lon="11.304555041715503">
        <ele>546</ele>
        <time>2015-09-06T13:39:14Z</time>
      </trkpt>
      <trkpt lat="48.176735015586019" lon="11.304578008130193">
        <ele>544</ele>
        <time>2015-09-06T13:39:18Z</time>
      </trkpt>
      <trkpt lat="48.176856972277164" lon="11.304641962051392">
        <ele>543</ele>
        <time>2015-09-06T13:39:22Z</time>
      </trkpt>
      <trkpt lat="48.177185039967299" lon="11.305412007495761">
        <ele>543</ele>
        <time>2015-09-06T13:39:40Z</time>
      </trkpt>
      <trkpt lat="48.177176993340254" lon="11.305590961128473">
        <ele>543</ele>
        <time>2015-09-06T13:39:44Z</time>
      </trkpt>
      <trkpt lat="48.17600604146719" lon="11.307464987039566">
        <ele>569</ele>
        <time>2015-09-06T13:40:36Z</time>
      </trkpt>
      <trkpt lat="48.176082987338305" lon="11.307718036696315">
        <ele>570</ele>
        <time>2015-09-06T13:40:41Z</time>
      </trkpt>
      <trkpt lat="48.176497975364327" lon="11.308270990848541">
        <ele>569</ele>
        <time>2015-09-06T13:40:58Z</time>
      </trkpt>
      <trkpt lat="48.176418012008071" lon="11.308596963062882">
        <ele>568</ele>
        <time>2015-09-06T13:41:05Z</time>
      </trkpt>
      <trkpt lat="48.175442023202777" lon="11.310377027839422">
        <ele>548</ele>
        <time>2015-09-06T13:41:51Z</time>
      </trkpt>
      <trkpt lat="48.174809021875262" lon="11.31117096170783">
        <ele>536</ele>
        <time>2015-09-06T13:42:16Z</time>
      </trkpt>
      <trkpt lat="48.174763005226851" lon="11.311352010816336">
        <ele>534</ele>
        <time>2015-09-06T13:42:20Z</time>
      </trkpt>
      <trkpt lat="48.17480499856174" lon="11.311559965834022">
        <ele>533</ele>
        <time>2015-09-06T13:42:24Z</time>
      </trkpt>
      <trkpt lat="48.176669972017407" lon="11.31432599388063">
        <ele>536</ele>
        <time>2015-09-06T13:43:43Z</time>
      </trkpt>
      <trkpt lat="48.178936019539833" lon="11.320619964972138">
        <ele>531</ele>
        <time>2015-09-06T13:46:06Z</time>
      </trkpt>
      <trkpt lat="48.179569020867348" lon="11.321348017081618">
        <ele>525</ele>
        <time>2015-09-06T13:46:30Z</time>
      </trkpt>
      <trkpt lat="48.179664993658662" lon="11.321383975446224">
        <ele>525</ele>
        <time>2015-09-06T13:46:33Z</time>
      </trkpt>
      <trkpt lat="48.180873999372125" lon="11.321081975474954">
        <ele>521</ele>
        <time>2015-09-06T13:47:10Z</time>
      </trkpt>
      <trkpt lat="48.181038033217192" lon="11.321231005713344">
        <ele>520</ele>
        <time>2015-09-06T13:47:16Z</time>
      </trkpt>
      <trkpt lat="48.181117996573448" lon="11.321452036499977">
        <ele>519</ele>
        <time>2015-09-06T13:47:21Z</time>
      </trkpt>
    </trkseg>
  </trk>

</gpx>